Time;durP1;ratioP1;P1;durP2;ratioP2;P2;SDS_P1;SDS_P2;PMS_P1;PMS_P2;Temp;Humidity;BMP_temperature;BMP_pressure;BME280_temperature;BME280_humidity;BME280_pressure;Samples;Min_cycle;Max_cycle;Signal;HPM_P1;HPM_P2
2022/08/13 02:32:47;;;;;;;;;;;;;;;18.36;100.00;99291.47;1734474;80;20599;-76
2022/08/13 02:35:15;;;;;;;;;;;;;;;18.35;100.00;99287.09;1711440;84;20456;-75
2022/08/13 02:37:41;;;;;;;;;;;;;;;18.34;100.00;99286.88;1711368;84;21558;-75
2022/08/13 02:41:38;;;;;;;;;;;;;;;18.32;100.00;99287.84;1711389;84;20121;-74
2022/08/13 02:42:37;;;;;;;;;;;;;;;18.32;100.00;99288.42;1706694;84;20416;-75
2022/08/13 02:45:05;;;;;;;;;;;;;;;18.31;100.00;99282.66;1710680;84;20121;-75
2022/08/13 02:47:33;;;;;;;;;;;;;;;18.30;100.00;99279.07;1710664;83;20078;-75
2022/08/13 02:50:00;;;;;;;;;;;;;;;18.30;100.00;99285.22;1719090;82;21790;-76
2022/08/13 02:52:26;;;;;;;;;;;;;;;18.28;100.00;99285.59;1696802;84;20086;-76
2022/08/13 02:54:52;;;;;;;;;;;;;;;18.29;100.00;99285.00;1677036;84;20110;-76
2022/08/13 02:57:21;;;;;;;;;;;;;;;18.31;100.00;99282.66;1696892;83;20118;-77
2022/08/13 02:59:47;;;;;;;;;;;;;;;18.31;100.00;99284.05;1696556;83;20098;-78
2022/08/13 03:02:13;;;;;;;;;;;;;;;18.30;100.00;99290.19;1697103;83;21104;-79
2022/08/13 03:04:45;;;;;;;;;;;;;;;18.28;100.00;99290.34;1725496;82;20191;-77
2022/08/13 03:07:11;;;;;;;;;;;;;;;18.28;100.00;99294.52;1726223;82;20092;-80
2022/08/13 03:09:38;;;;;;;;;;;;;;;18.27;100.00;99288.74;1725724;82;20214;-82
2022/08/13 03:12:05;;;;;;;;;;;;;;;18.27;100.00;99290.13;1724752;83;20124;-78
2022/08/13 03:14:32;;;;;;;;;;;;;;;18.25;100.00;99290.50;1725635;82;21038;-77
2022/08/13 03:16:58;;;;;;;;;;;;;;;18.26;100.00;99293.50;1725708;82;20142;-77
2022/08/13 03:19:25;;;;;;;;;;;;;;;18.25;100.00;99289.11;1726096;82;20100;-75
2022/08/13 03:21:51;;;;;;;;;;;;;;;18.26;100.00;99289.91;1725529;83;20123;-77
2022/08/13 03:24:18;;;;;;;;;;;;;;;18.24;100.00;99282.54;1726030;82;20096;-77
2022/08/13 03:26:45;;;;;;;;;;;;;;;18.24;100.00;99283.93;1726047;82;21098;-78
2022/08/13 03:29:11;;;;;;;;;;;;;;;18.24;100.00;99276.40;1725173;83;20092;-78
2022/08/13 03:31:38;;;;;;;;;;;;;;;18.27;100.00;99283.98;1725977;82;20153;-77
2022/08/13 03:34:05;;;;;;;;;;;;;;;18.31;100.00;99283.45;1695285;84;20436;-76
2022/08/13 03:36:31;;;;;;;;;;;;;;;18.35;100.00;99281.53;1694315;84;20453;-77
2022/08/13 03:38:58;;;;;;;;;;;;;;;18.39;100.00;99283.78;1694232;84;21804;-76
2022/08/13 03:41:25;;;;;;;;;;;;;;;18.41;100.00;99286.98;1694218;84;20094;-77
2022/08/13 03:43:53;;;;;;;;;;;;;;;18.46;100.00;99285.86;1694276;84;20122;-75
2022/08/13 03:46:21;;;;;;;;;;;;;;;18.50;100.00;99292.25;1694200;84;20146;-75
2022/08/13 03:48:48;;;;;;;;;;;;;;;18.51;100.00;99295.23;1694860;84;20155;-77
2022/08/13 03:51:16;;;;;;;;;;;;;;;18.50;100.00;99296.41;1694643;84;21110;-77
2022/08/13 03:53:43;;;;;;;;;;;;;;;18.47;100.00;99298.00;1694358;84;20098;-77
2022/08/13 03:56:10;;;;;;;;;;;;;;;18.46;100.00;99306.12;1694559;84;20141;-76
2022/08/13 03:58:37;;;;;;;;;;;;;;;18.48;100.00;99301.58;1694554;84;20575;-76
2022/08/13 04:01:04;;;;;;;;;;;;;;;18.47;100.00;99304.14;1694485;84;20074;-77
2022/08/13 04:03:41;;;;;;;;;;;;;;;18.46;100.00;99304.73;1694586;84;21095;-76
2022/08/13 04:06:16;;;;;;;;;;;;;;;18.47;100.00;99305.53;1694306;84;20417;-78
2022/08/13 04:08:44;;;;;;;;;;;;;;;18.48;100.00;99303.73;1694533;84;20134;-78
2022/08/13 04:11:15;;;;;;;;;;;;;;;18.49;100.00;99300.37;1694390;83;20105;-79
2022/08/13 04:13:41;;;;;;;;;;;;;;;18.51;100.00;99298.61;1693988;84;20125;-80
2022/08/13 04:16:20;;;;;;;;;;;;;;;18.51;100.00;99295.23;1694226;84;21510;-79
2022/08/13 04:18:48;;;;;;;;;;;;;;;18.51;100.00;99290.27;1694417;83;20087;-74
2022/08/13 04:21:15;;;;;;;;;;;;;;;18.50;100.00;99290.86;1694457;83;20098;-79
2022/08/13 04:23:43;;;;;;;;;;;;;;;18.46;100.00;99283.88;1694078;84;20437;-77
2022/08/13 04:26:10;;;;;;;;;;;;;;;18.45;100.00;99285.06;1693997;83;20185;-78
2022/08/13 04:28:41;;;;;;;;;;;;;;;18.44;100.00;99285.44;1694018;84;21521;-77
2022/08/13 04:31:11;;;;;;;;;;;;;;;18.40;100.00;99281.21;1693750;84;20146;-82
2022/08/13 04:33:38;;;;;;;;;;;;;;;18.39;100.00;99288.53;1694258;84;20154;-81
2022/08/13 04:36:06;;;;;;;;;;;;;;;18.36;100.00;99292.06;1696037;84;20487;-82
2022/08/13 04:38:33;;;;;;;;;;;;;;;18.34;100.00;99288.85;1696221;83;20147;-80
2022/08/13 04:41:01;;;;;;;;;;;;;;;18.30;100.00;99295.74;1696628;84;21544;-79
2022/08/13 04:43:29;;;;;;;;;;;;;;;18.27;100.00;99293.71;1697701;83;20460;-83
2022/08/13 04:45:58;;;;;;;;;;;;;;;18.24;100.00;99297.23;1696359;83;20131;-81
2022/08/13 04:48:23;;;;;;;;;;;;;;;18.21;100.00;99293.01;1696149;84;20130;-84
2022/08/13 04:50:50;;;;;;;;;;;;;;;18.19;100.00;99291.99;1696563;84;20518;-84
2022/08/13 04:53:22;;;;;;;;;;;;;;;18.19;100.00;99295.36;1696275;84;21489;-82
2022/08/13 04:55:48;;;;;;;;;;;;;;;18.18;100.00;99297.92;1696090;84;20417;-80
2022/08/13 04:58:15;;;;;;;;;;;;;;;18.17;100.00;99300.48;1696269;84;20370;-80
2022/08/13 05:00:44;;;;;;;;;;;;;;;18.14;100.00;99295.89;1696095;84;20753;-79
2022/08/13 05:03:11;;;;;;;;;;;;;;;18.13;100.00;99301.23;1696511;83;20190;-79
2022/08/13 05:05:38;;;;;;;;;;;;;;;18.12;100.00;99300.20;1696446;84;21106;-81
2022/08/13 05:08:05;;;;;;;;;;;;;;;18.11;100.00;99301.38;1697032;83;20122;-82
2022/08/13 05:10:31;;;;;;;;;;;;;;;18.09;100.00;99303.73;1697031;84;20472;-75
2022/08/13 05:13:01;;;;;;;;;;;;;;;18.07;100.00;99296.36;1697211;84;20146;-76
2022/08/13 05:15:28;;;;;;;;;;;;;;;18.04;100.00;99299.87;1697437;83;20445;-74
2022/08/13 05:17:54;;;;;;;;;;;;;;;18.02;100.00;99303.02;1697107;83;21105;-75
2022/08/13 05:20:20;;;;;;;;;;;;;;;18.02;100.00;99303.02;1697232;84;20184;-75
2022/08/13 05:22:47;;;;;;;;;;;;;;;18.02;100.00;99305.80;1697070;84;20440;-75
2022/08/13 05:25:17;;;;;;;;;;;;;;;18.00;100.00;99305.37;1697008;84;20122;-76
2022/08/13 05:27:44;;;;;;;;;;;;;;;17.98;100.00;99306.33;1697276;84;20449;-75
2022/08/13 05:30:12;;;;;;;;;;;;;;;17.95;100.00;99293.77;1697328;83;21897;-76
2022/08/13 05:32:39;;;;;;;;;;;;;;;17.95;100.00;99296.55;1696880;84;20086;-75
2022/08/13 05:35:08;;;;;;;;;;;;;;;17.97;100.00;99294.20;1697235;84;20445;-77
2022/08/13 05:37:36;;;;;;;;;;;;;;;17.98;100.00;99297.19;1696805;84;20086;-77
2022/08/13 05:40:03;;;;;;;;;;;;;;;18.01;100.00;99296.45;1697020;84;20484;-77
2022/08/13 05:42:33;;;;;;;;;;;;;;;18.06;100.00;99290.59;1697331;83;21054;-78
2022/08/13 05:44:59;;;;;;;;;;;;;;;18.11;100.00;99287.49;1696946;83;20175;-78
2022/08/13 05:47:26;;;;;;;;;;;;;;;18.20;100.00;99292.80;1697066;84;20432;-80
2022/08/13 05:49:53;;;;;;;;;;;;;;;18.31;100.00;99298.73;1697219;84;20122;-78
2022/08/13 05:52:20;;;;;;;;;;;;;;;18.41;100.00;99298.10;1697035;84;20094;-75
2022/08/13 05:54:46;;;;;;;;;;;;;;;18.50;100.00;99303.36;1696931;84;21142;-74
2022/08/13 05:57:14;;;;;;;;;;;;;;;18.58;100.00;99305.08;1697262;84;20098;-77
2022/08/13 06:05:10;;;;;;;;;;;;;;;18.75;100.00;99312.90;1679130;84;20088;-76
2022/08/13 06:07:40;;;;;;;;;;;;;;;18.79;100.00;99304.61;1670798;84;21109;-78
2022/08/13 06:10:07;;;;;;;;;;;;;;;18.83;100.00;99314.39;1697201;83;20110;-78
2022/08/13 06:12:33;;;;;;;;;;;;;;;18.88;100.00;99309.30;1697027;84;20109;-79
2022/08/13 06:15:01;;;;;;;;;;;;;;;18.95;100.00;99299.66;1696899;84;20593;-77
2022/08/13 06:17:27;;;;;;;;;;;;;;;19.00;100.00;99307.68;1697294;84;20087;-76
2022/08/13 06:19:53;;;;;;;;;;;;;;;19.02;100.00;99298.95;1676529;84;21468;-78
2022/08/13 06:22:20;;;;;;;;;;;;;;;19.05;100.00;99294.03;1688191;84;20097;-76
2022/08/13 06:24:47;;;;;;;;;;;;;;;19.08;100.00;99296.02;1691618;84;20480;-78
2022/08/13 06:27:13;;;;;;;;;;;;;;;19.12;100.00;99300.45;1697277;83;20136;-77
2022/08/13 06:29:43;;;;;;;;;;;;;;;19.14;100.00;99300.08;1695428;84;20097;-76
2022/08/13 06:32:11;;;;;;;;;;;;;;;19.14;100.00;99298.09;1687510;84;21146;-78
2022/08/13 06:34:38;;;;;;;;;;;;;;;19.14;100.00;99298.09;1687505;85;20150;-78
2022/08/13 06:37:05;;;;;;;;;;;;;;;19.13;100.00;99299.86;1687668;85;20097;-78
2022/08/13 06:39:32;;;;;;;;;;;;;;;19.09;100.00;99294.84;1687587;85;20121;-80
2022/08/13 06:42:02;;;;;;;;;;;;;;;19.04;100.00;99292.42;1687708;85;20094;-76
2022/08/13 06:44:32;;;;;;;;;;;;;;;18.99;100.00;99288.00;1687760;85;21087;-78
2022/08/13 06:47:04;;;;;;;;;;;;;;;18.97;100.00;99279.81;1687930;85;20114;-77
2022/08/13 06:49:31;;;;;;;;;;;;;;;18.93;100.00;99275.59;1687735;85;20157;-76
2022/08/13 06:51:58;;;;;;;;;;;;;;;18.93;100.00;99277.58;1688042;85;20089;-73
2022/08/13 06:54:24;;;;;;;;;;;;;;;18.96;100.00;99279.02;1690974;84;20420;-75
2022/08/13 06:56:53;;;;;;;;;;;;;;;19.01;100.00;99285.64;1690519;84;21055;-77
2022/08/13 06:59:21;;;;;;;;;;;;;;;19.11;100.00;99273.02;1688913;84;20109;-75
2022/08/13 07:01:47;;;;;;;;;;;;;;;19.22;100.00;99278.70;1668176;85;20121;-80
2022/08/13 07:04:18;;;;;;;;;;;;;;;19.33;100.00;99274.06;1687847;85;20078;-78
2022/08/13 07:06:47;;;;;;;;;;;;;;;19.44;100.00;99277.17;1687778;85;20121;-76
2022/08/13 07:09:13;;;;;;;;;;;;;;;19.56;100.00;99281.70;1686695;84;21063;-80
2022/08/13 07:11:44;;;;;;;;;;;;;;;19.64;100.00;99276.39;1683796;85;20199;-76
2022/08/13 07:14:07;;;;;;;;;;;;;;;19.72;100.00;99273.88;1655276;85;20422;-74
2022/08/13 07:16:34;;;;;;;;;;;;;;;19.80;100.00;99267.78;1684043;84;20175;-79
2022/08/13 07:19:00;;;;;;;;;;;;;;;19.90;100.00;99271.27;1683936;85;20175;-80
2022/08/13 07:21:28;;;;;;;;;;;;;;;19.96;100.00;99277.28;1684189;85;21219;-75
2022/08/13 07:23:55;;;;;;;;;;;;;;;19.99;100.00;99266.17;1684351;85;20120;-75
2022/08/13 07:26:22;;;;;;;;;;;;;;;19.99;100.00;99267.56;1684002;85;20139;-77
2022/08/13 07:28:53;;;;;;;;;;;;;;;20.04;100.00;99267.80;1683988;84;20185;-74
2022/08/13 07:31:21;;;;;;;;;;;;;;;20.07;100.00;99266.44;1683718;85;20116;-74
2022/08/13 07:33:54;;;;;;;;;;;;;;;20.12;100.00;99259.70;1682316;84;21545;-80
2022/08/13 07:36:21;;;;;;;;;;;;;;;20.14;100.00;99257.92;1682005;84;20140;-79
2022/08/13 07:38:48;;;;;;;;;;;;;;;20.12;100.00;99256.92;1668718;84;20117;-77
2022/08/13 07:41:14;;;;;;;;;;;;;;;20.10;100.00;99262.88;1655096;85;20116;-79
2022/08/13 07:43:43;;;;;;;;;;;;;;;20.11;100.00;99260.89;1654856;86;20217;-78
2022/08/13 07:46:13;;;;;;;;;;;;;;;20.15;100.00;99259.53;1654862;86;21263;-75
2022/08/13 07:48:41;;;;;;;;;;;;;;;20.19;100.00;99263.14;1654493;86;20482;-75
2022/08/13 07:51:20;;;;;;;;;;;;;;;20.24;100.00;99260.77;1655010;86;20140;-77
2022/08/13 07:53:49;;;;;;;;;;;;;;;20.30;100.00;99261.20;1654668;85;20459;-77
2022/08/13 07:56:19;;;;;;;;;;;;;;;20.34;100.00;99260.04;1654651;86;20185;-76
2022/08/13 07:58:45;;;;;;;;;;;;;;;20.37;100.00;99249.51;1654920;86;21517;-83
2022/08/13 08:01:12;;;;;;;;;;;;;;;20.39;100.00;99249.15;1654530;86;20149;-75
2022/08/13 08:03:41;;;;;;;;;;;;;;;20.42;100.00;99251.95;1654677;86;20172;-75
2022/08/13 08:06:12;;;;;;;;;;;;;;;20.47;100.00;99246.61;1658978;83;20112;-79
2022/08/13 08:08:39;;;;;;;;;;;;;;;20.62;100.00;99246.10;1669684;85;20125;-72
2022/08/13 08:11:04;;;;;;;;;;;;;;;20.80;100.00;99244.17;1682305;84;21087;-77
2022/08/13 08:13:33;;;;;;;;;;;;;;;20.99;100.00;99241.67;1682345;84;20125;-78
2022/08/13 08:16:02;;;;;;;;;;;;;;;21.14;100.00;99247.51;1685527;84;20085;-77
2022/08/13 08:18:30;;;;;;;;;;;;;;;21.24;100.00;99244.58;1687490;85;20123;-77
2022/08/13 08:21:06;;;;;;;;;;;;;;;21.33;100.00;99241.62;1688555;84;20198;-77
2022/08/13 08:23:35;;;;;;;;;;;;;;;21.42;100.00;99242.61;1688280;84;21145;-78
2022/08/13 08:26:06;;;;;;;;;;;;;;;21.54;100.00;99234.45;1688519;84;20198;-80
2022/08/13 08:28:32;;;;;;;;;;;;;;;21.67;100.00;99242.65;1687598;84;20142;-75
2022/08/13 08:30:59;;;;;;;;;;;;;;;21.76;100.00;99241.66;1687627;85;20143;-80
2022/08/13 08:33:26;;;;;;;;;;;;;;;21.87;100.00;99248.06;1687964;85;20465;-76
2022/08/13 08:35:54;;;;;;;;;;;;;;;21.97;100.00;99245.84;1688570;85;21109;-77
2022/08/13 08:43:53;;;;;;;;;;;;;;;22.42;100.00;99249.62;1680876;85;20117;-77
2022/08/13 08:46:20;;;;;;;;;;;;;;;22.76;100.00;99250.72;1680734;85;20429;-83
2022/08/13 08:48:47;;;;;;;;;;;;;;;23.01;100.00;99251.45;1680700;85;21158;-76
2022/08/13 08:51:13;;;;;;;;;;;;;;;23.14;100.00;99251.77;1682233;85;20106;-76
2022/08/13 08:53:46;;;;;;;;;;;;;;;23.19;100.00;99247.75;1682788;85;20479;-76
2022/08/13 08:56:08;;;;;;;;;;;;;;;23.18;100.00;99246.95;1682773;84;20110;-75
2022/08/13 08:58:41;;;;;;;;;;;;;;;23.16;100.00;99240.16;1682975;85;20097;-74
2022/08/13 09:01:05;;;;;;;;;;;;;;;23.17;100.00;99239.76;1651536;86;21135;-85
2022/08/13 09:03:31;;;;;;;;;;;;;;;23.30;100.00;99243.69;1681711;84;20165;-73
2022/08/13 09:06:00;;;;;;;;;;;;;;;23.48;100.00;99244.99;1680106;84;20225;-78
2022/08/13 09:08:26;;;;;;;;;;;;;;;23.70;100.00;99242.84;1676147;84;20158;-85
2022/08/13 09:10:53;;;;;;;;;;;;;;;23.89;100.00;99240.11;1682908;85;20089;-76
2022/08/13 09:13:21;;;;;;;;;;;;;;;23.99;100.00;99234.41;1682807;85;20683;-77
2022/08/13 09:15:48;;;;;;;;;;;;;;;24.03;100.00;99235.79;1681745;85;20134;-78
2022/08/13 09:18:17;;;;;;;;;;;;;;;24.08;96.60;99226.93;1681596;85;20118;-81
2022/08/13 09:20:44;;;;;;;;;;;;;;;24.40;96.38;99227.23;1662275;85;20087;-82
2022/08/13 09:23:13;;;;;;;;;;;;;;;24.97;95.01;99217.56;1679159;84;20189;-72
2022/08/13 09:25:42;;;;;;;;;;;;;;;25.30;89.12;99211.71;1667527;85;21105;-72
2022/08/13 09:28:08;;;;;;;;;;;;;;;25.27;89.16;99208.34;1679226;85;20126;-71
2022/08/13 09:30:35;;;;;;;;;;;;;;;25.15;86.61;99211.11;1681576;85;20133;-70
2022/08/13 09:33:02;;;;;;;;;;;;;;;25.05;89.14;99221.08;1650265;86;20167;-70
2022/08/13 09:35:30;;;;;;;;;;;;;;;24.95;87.87;99218.56;1681595;83;20206;-71
2022/08/13 09:37:57;;;;;;;;;;;;;;;24.87;87.21;99222.67;1690719;84;21790;-70
2022/08/13 09:40:25;;;;;;;;;;;;;;;24.79;89.17;99234.62;1696401;84;20167;-70
2022/08/13 09:42:57;;;;;;;;;;;;;;;24.79;90.13;99226.81;1696139;84;20134;-70
2022/08/13 09:45:27;;;;;;;;;;;;;;;24.83;89.09;99230.38;1688933;83;20180;-70
2022/08/13 09:47:54;;;;;;;;;;;;;;;24.96;87.11;99218.17;1672065;84;20221;-70
2022/08/13 09:50:22;;;;;;;;;;;;;;;25.11;86.04;99208.16;1696076;84;21107;-71
2022/08/13 09:52:51;;;;;;;;;;;;;;;25.14;85.96;99205.91;1695798;83;20205;-70
2022/08/13 09:55:17;;;;;;;;;;;;;;;25.18;88.50;99201.84;1696508;84;20207;-70
2022/08/13 09:57:55;;;;;;;;;;;;;;;25.50;87.37;99202.75;1696224;84;20159;-71
2022/08/13 10:00:24;;;;;;;;;;;;;;;25.90;87.83;99207.18;1657692;86;20190;-70
2022/08/13 10:02:57;;;;;;;;;;;;;;;26.33;83.76;99218.48;1691880;84;21154;-70
2022/08/13 10:05:26;;;;;;;;;;;;;;;26.70;80.83;99212.33;1696456;84;20142;-71
2022/08/13 10:07:53;;;;;;;;;;;;;;;27.05;81.09;99213.66;1696326;84;20090;-70
2022/08/13 10:10:19;;;;;;;;;;;;;;;27.31;79.68;99218.28;1696553;84;20433;-71
2022/08/13 10:12:46;;;;;;;;;;;;;;;27.43;75.68;99202.11;1696207;83;20175;-71
2022/08/13 10:15:12;;;;;;;;;;;;;;;27.49;77.44;99206.61;1696129;84;21154;-71
2022/08/13 10:17:51;;;;;;;;;;;;;;;27.54;75.44;99208.30;1691468;83;20788;-71
2022/08/13 10:20:29;;;;;;;;;;;;;;;27.60;76.15;99203.75;1684037;85;20489;-71
2022/08/13 10:23:00;;;;;;;;;;;;;;;27.63;74.52;99209.13;1694999;84;20139;-70
2022/08/13 10:25:27;;;;;;;;;;;;;;;27.61;75.55;99196.88;1696166;84;20448;-71
2022/08/13 10:27:53;;;;;;;;;;;;;;;27.72;73.09;99207.11;1696410;84;21112;-70
2022/08/13 10:30:24;;;;;;;;;;;;;;;27.64;74.73;99211.33;1693558;83;20636;-71
2022/08/13 10:32:54;;;;;;;;;;;;;;;27.57;73.11;99208.03;1674845;84;20143;-71
2022/08/13 10:35:23;;;;;;;;;;;;;;;27.59;75.52;99203.57;1696157;84;20162;-71
2022/08/13 10:37:53;;;;;;;;;;;;;;;27.70;73.76;99199.70;1694948;83;20440;-71
2022/08/13 10:40:18;;;;;;;;;;;;;;;27.83;75.29;99201.97;1693682;84;21809;-73
2022/08/13 10:42:44;;;;;;;;;;;;;;;27.88;72.38;99202.85;1694043;84;20142;-71
2022/08/13 10:45:13;;;;;;;;;;;;;;;27.70;73.45;99199.70;1693890;84;20146;-72
2022/08/13 10:47:46;;;;;;;;;;;;;;;27.75;77.05;99196.33;1693970;84;20495;-72
2022/08/13 10:50:14;;;;;;;;;;;;;;;28.02;72.23;99198.27;1692959;84;20148;-71
2022/08/13 10:52:41;;;;;;;;;;;;;;;28.15;74.62;99192.08;1694075;84;21111;-73
2022/08/13 10:55:11;;;;;;;;;;;;;;;28.35;72.79;99195.39;1693920;84;20173;-72
2022/08/13 10:57:40;;;;;;;;;;;;;;;28.61;72.71;99191.45;1692872;84;20201;-72
2022/08/13 11:00:08;;;;;;;;;;;;;;;28.96;71.10;99190.25;1693354;84;20102;-76
2022/08/13 11:02:37;;;;;;;;;;;;;;;29.21;69.45;99186.05;1694119;84;20209;-77
2022/08/13 11:05:05;;;;;;;;;;;;;;;29.21;69.17;99190.30;1693846;83;21018;-78
2022/08/13 11:07:34;;;;;;;;;;;;;;;29.08;69.15;99191.69;1694096;84;20118;-75
2022/08/13 11:10:01;;;;;;;;;;;;;;;28.88;66.99;99194.70;1693334;84;20598;-78
2022/08/13 11:12:28;;;;;;;;;;;;;;;28.89;70.02;99189.84;1692830;84;20142;-77
2022/08/13 11:14:55;;;;;;;;;;;;;;;29.15;70.84;99186.44;1694045;84;20445;-77
2022/08/13 11:17:22;;;;;;;;;;;;;;;29.54;70.33;99190.88;1693973;84;21241;-77
2022/08/13 11:19:49;;;;;;;;;;;;;;;29.75;67.76;99180.91;1694093;84;20102;-78
2022/08/13 11:22:17;;;;;;;;;;;;;;;29.63;65.00;99188.78;1683580;84;20480;-78
2022/08/13 11:24:44;;;;;;;;;;;;;;;29.10;66.33;99192.65;1676441;85;20445;-82
2022/08/13 11:27:10;;;;;;;;;;;;;;;28.66;68.63;99190.11;1676568;85;20138;-79
2022/08/13 11:29:36;;;;;;;;;;;;;;;28.32;70.35;99196.28;1676561;85;21122;-78
2022/08/13 11:32:04;;;;;;;;;;;;;;;28.03;70.55;99192.00;1672716;85;20085;-77
2022/08/13 11:34:31;;;;;;;;;;;;;;;27.72;72.68;99197.23;1672425;86;20167;-81
2022/08/13 11:36:57;;;;;;;;;;;;;;;27.42;73.67;99189.24;1672591;86;20533;-76
2022/08/13 11:39:24;;;;;;;;;;;;;;;27.21;74.72;99186.91;1674483;84;20155;-76
2022/08/13 11:41:50;;;;;;;;;;;;;;;27.17;76.63;99187.61;1674708;84;21143;-76
2022/08/13 11:44:17;;;;;;;;;;;;;;;27.30;78.11;99178.66;1674538;85;20187;-76
2022/08/13 11:46:44;;;;;;;;;;;;;;;27.60;76.49;99179.78;1674446;85;20100;-74
2022/08/13 11:49:11;;;;;;;;;;;;;;;28.08;77.91;99170.31;1674517;85;20267;-72
2022/08/13 11:51:38;;;;;;;;;;;;;;;28.69;73.36;99166.00;1677119;84;20251;-72
2022/08/13 11:54:05;;;;;;;;;;;;;;;28.88;71.10;99162.20;1684704;84;21123;-75
2022/08/13 11:56:32;;;;;;;;;;;;;;;28.89;70.57;99165.20;1696202;83;20114;-74
2022/08/13 11:58:59;;;;;;;;;;;;;;;28.78;68.61;99159.70;1696427;84;20436;-76
2022/08/13 12:01:25;;;;;;;;;;;;;;;28.70;71.03;99156.91;1697387;84;20147;-73
2022/08/13 12:03:54;;;;;;;;;;;;;;;28.57;70.77;99171.78;1696880;84;20178;-71
2022/08/13 12:06:21;;;;;;;;;;;;;;;28.32;71.96;99157.56;1696330;84;21575;-78
2022/08/13 12:08:48;;;;;;;;;;;;;;;28.08;72.93;99161.22;1696429;84;20172;-76
2022/08/13 12:11:15;;;;;;;;;;;;;;;27.91;74.49;99159.04;1696256;84;20441;-77
2022/08/13 12:13:41;;;;;;;;;;;;;;;27.80;74.68;99152.09;1696432;84;20206;-77
2022/08/13 12:16:08;;;;;;;;;;;;;;;27.70;75.90;99152.56;1695313;84;20167;-77
2022/08/13 12:18:35;;;;;;;;;;;;;;;27.65;76.60;99153.09;1696730;83;21086;-75
2022/08/13 12:21:01;;;;;;;;;;;;;;;27.61;76.67;99150.36;1674911;84;20125;-76
2022/08/13 12:23:28;;;;;;;;;;;;;;;27.55;77.11;99145.03;1683393;84;20420;-73
2022/08/13 12:25:55;;;;;;;;;;;;;;;27.51;77.68;99140.72;1695626;84;20205;-73
2022/08/13 12:28:23;;;;;;;;;;;;;;;27.54;78.41;99134.20;1696526;83;20519;-72
2022/08/13 12:30:51;;;;;;;;;;;;;;;27.61;77.97;99134.84;1696386;83;21156;-74
2022/08/13 12:33:18;;;;;;;;;;;;;;;27.62;78.10;99131.41;1688284;83;20142;-77
2022/08/13 12:35:44;;;;;;;;;;;;;;;27.70;79.15;99139.87;1686506;84;20442;-73
2022/08/13 12:38:12;;;;;;;;;;;;;;;27.85;78.61;99136.83;1678449;84;20166;-72
2022/08/13 12:40:39;;;;;;;;;;;;;;;28.06;76.87;99132.66;1672437;84;20196;-74
2022/08/13 12:43:06;;;;;;;;;;;;;;;28.23;77.28;99132.03;1686720;84;21770;-75
2022/08/13 12:45:34;;;;;;;;;;;;;;;28.38;75.23;99124.73;1684892;84;20138;-75
2022/08/13 12:48:08;;;;;;;;;;;;;;;28.46;72.12;99121.09;1675557;84;20194;-75
2022/08/13 12:50:36;;;;;;;;;;;;;;;28.50;71.79;99120.36;1676429;84;20148;-72
2022/08/13 12:53:03;;;;;;;;;;;;;;;28.66;70.42;99124.53;1686198;84;20433;-75
2022/08/13 12:55:30;;;;;;;;;;;;;;;28.85;68.14;99112.29;1678683;84;21161;-80
2022/08/13 12:57:58;;;;;;;;;;;;;;;29.07;68.83;99115.84;1682029;84;20259;-72
2022/08/13 13:00:26;;;;;;;;;;;;;;;29.37;66.32;99116.69;1686253;84;21007;-72
2022/08/13 13:02:53;;;;;;;;;;;;;;;29.61;65.95;99109.26;1685782;84;20091;-71
2022/08/13 13:05:20;;;;;;;;;;;;;;;29.82;63.93;99108.53;1684632;84;20204;-72
2022/08/13 13:07:47;;;;;;;;;;;;;;;29.79;62.63;99109.45;1687439;84;21608;-74
2022/08/13 13:10:14;;;;;;;;;;;;;;;29.62;63.65;99110.84;1679692;84;20933;-74
2022/08/13 13:12:40;;;;;;;;;;;;;;;29.46;62.83;99112.55;1678033;84;20156;-75
2022/08/13 13:15:09;;;;;;;;;;;;;;;29.37;63.69;99113.07;1689689;83;20177;-75
2022/08/13 13:17:40;;;;;;;;;;;;;;;29.39;63.91;99110.58;1693631;84;20098;-72
2022/08/13 13:20:08;;;;;;;;;;;;;;;29.44;62.97;99106.59;1692377;84;21138;-79
2022/08/13 13:22:36;;;;;;;;;;;;;;;29.65;64.11;99107.10;1685909;84;20130;-73
2022/08/13 13:25:03;;;;;;;;;;;;;;;29.98;62.16;99104.13;1663492;85;20212;-72
2022/08/13 13:27:30;;;;;;;;;;;;;;;30.27;62.24;99101.08;1687405;84;20150;-72
2022/08/13 13:29:57;;;;;;;;;;;;;;;30.39;61.42;99099.43;1687309;85;20155;-75
2022/08/13 13:32:24;;;;;;;;;;;;;;;30.38;60.35;99105.72;1687580;84;21108;-75
2022/08/13 13:34:51;;;;;;;;;;;;;;;30.37;59.19;99096.27;1687354;85;20164;-72
2022/08/13 13:37:17;;;;;;;;;;;;;;;30.05;57.86;99087.52;1687494;85;20174;-70
2022/08/13 13:39:44;;;;;;;;;;;;;;;29.79;59.86;99094.67;1681198;84;20275;-72
2022/08/13 13:42:11;;;;;;;;;;;;;;;29.87;62.11;99089.56;1679904;85;20468;-73
2022/08/13 13:44:38;;;;;;;;;;;;;;;30.12;61.71;99095.13;1680182;85;21492;-71
2022/08/13 13:47:04;;;;;;;;;;;;;;;30.42;60.26;99097.09;1679986;85;20130;-74
2022/08/13 13:49:31;;;;;;;;;;;;;;;30.58;58.96;99088.42;1679379;85;20518;-77
2022/08/13 13:51:58;;;;;;;;;;;;;;;30.73;58.71;99090.06;1679748;84;20170;-79
2022/08/13 13:54:24;;;;;;;;;;;;;;;30.89;57.44;99079.91;1681048;84;20212;-73
2022/08/13 13:56:51;;;;;;;;;;;;;;;31.01;56.75;99084.70;1682242;85;21129;-74
2022/08/13 13:59:17;;;;;;;;;;;;;;;31.12;57.02;99089.94;1681926;85;20087;-74
2022/08/13 14:01:44;;;;;;;;;;;;;;;30.90;56.22;99087.16;1682144;85;20154;-74
2022/08/13 14:04:12;;;;;;;;;;;;;;;30.54;57.57;99087.73;1681986;85;20202;-75
2022/08/13 14:06:40;;;;;;;;;;;;;;;30.12;59.60;99095.13;1682046;85;20421;-73
2022/08/13 14:09:06;;;;;;;;;;;;;;;29.88;60.23;99089.73;1681725;85;21074;-73
2022/08/13 14:11:35;;;;;;;;;;;;;;;29.70;59.81;99087.52;1682013;85;20121;-73
2022/08/13 14:14:02;;;;;;;;;;;;;;;29.60;60.11;99089.30;1681952;85;20145;-75
2022/08/13 14:16:29;;;;;;;;;;;;;;;29.68;60.31;99092.05;1682106;85;20175;-75
2022/08/13 14:18:56;;;;;;;;;;;;;;;29.96;60.94;99091.06;1682091;85;20476;-75
2022/08/13 14:21:22;;;;;;;;;;;;;;;30.29;59.84;99089.29;1680922;85;21150;-74
2022/08/13 14:23:48;;;;;;;;;;;;;;;30.48;59.20;99086.13;1655215;85;20497;-74
2022/08/13 14:26:14;;;;;;;;;;;;;;;30.68;58.74;99084.99;1655148;85;20199;-73
2022/08/13 14:28:43;;;;;;;;;;;;;;;30.88;58.05;99084.00;1676665;84;20147;-74
2022/08/13 14:31:10;;;;;;;;;;;;;;;30.91;55.82;99085.12;1676816;85;20176;-77
2022/08/13 14:33:38;;;;;;;;;;;;;;;30.78;56.20;99082.38;1676484;85;21743;-71
2022/08/13 14:36:04;;;;;;;;;;;;;;;30.68;57.04;99077.91;1633325;85;20221;-73
2022/08/13 14:38:30;;;;;;;;;;;;;;;30.55;56.72;99079.41;1676852;84;20160;-73
2022/08/13 14:40:59;;;;;;;;;;;;;;;30.54;57.36;99071.53;1678482;85;20150;-75
2022/08/13 14:43:26;;;;;;;;;;;;;;;30.57;55.81;99076.93;1678377;85;20155;-78
2022/08/13 14:45:53;;;;;;;;;;;;;;;30.30;56.66;99080.95;1678369;85;21132;-76
2022/08/13 14:48:21;;;;;;;;;;;;;;;29.85;57.25;99089.23;1678311;85;20157;-86
2022/08/13 14:50:51;;;;;;;;;;;;;;;29.34;58.45;99085.09;1678566;85;20180;-73
2022/08/13 14:53:18;;;;;;;;;;;;;;;29.03;59.33;99079.84;1691682;83;20154;-71
2022/08/13 14:55:45;;;;;;;;;;;;;;;28.81;61.21;99075.47;1696378;84;20213;-78
2022/08/13 14:58:14;;;;;;;;;;;;;;;28.71;61.68;99086.47;1696229;84;21120;-72
2022/08/13 15:00:43;;;;;;;;;;;;;;;28.70;60.88;99087.09;1695811;83;20078;-72
2022/08/13 15:03:12;;;;;;;;;;;;;;;28.66;62.22;99077.94;1692579;84;20118;-72
2022/08/13 15:05:40;;;;;;;;;;;;;;;28.68;61.17;99078.90;1695656;84;20214;-78
2022/08/13 15:08:08;;;;;;;;;;;;;;;28.66;61.43;99076.52;1692698;84;20192;-77
2022/08/13 15:10:36;;;;;;;;;;;;;;;28.66;61.34;99072.28;1682350;85;21799;-76
2022/08/13 15:13:02;;;;;;;;;;;;;;;28.55;60.79;99071.20;1682517;85;20119;-79
2022/08/13 15:15:29;;;;;;;;;;;;;;;28.33;61.66;99064.59;1682379;85;20147;-74
2022/08/13 15:17:59;;;;;;;;;;;;;;;28.09;62.58;99064.06;1699836;83;20199;-76
2022/08/13 15:20:29;;;;;;;;;;;;;;;27.90;63.31;99062.96;1716324;82;20174;-76
2022/08/13 15:22:56;;;;;;;;;;;;;;;27.73;64.55;99063.47;1688815;84;21242;-76
2022/08/13 15:25:23;;;;;;;;;;;;;;;27.57;64.91;99055.80;1688079;85;20133;-76